Date,TemperatureHighF,TemperatureAvgF,TemperatureLowF,DewpointHighF,DewpointAvgF,DewpointLowF,HumidityHigh,HumidityAvg,HumidityLow,PressureMaxIn,PressureMinIn,WindSpeedMaxMPH,WindSpeedAvgMPH,GustSpeedMaxMPH,PrecipitationSumIn
2013-1-1,45.3,29.7,17.9,28.2,19.8,11.3,90,70,25,30.33,30.19,5,3,6,0.01
2013-1-2,49.7,33.6,21.8,27.2,20.6,16.7,83,62,31,30.25,30.09,6,3,9,0.00
2013-1-3,47.2,34.0,23.7,27.9,22.2,15.9,84,63,40,30.29,30.11,11,5,13,0.00
2013-1-4,45.6,32.2,23.1,27.6,23.3,18.7,89,72,44,30.38,30.26,6,3,8,0.00
2013-1-5,53.0,31.8,17.9,27.1,19.0,13.3,89,64,22,30.47,30.34,7,3,7,0.00
2013-1-6,51.7,33.9,21.4,24.4,18.7,15.4,87,59,25,30.38,30.13,6,4,6,0.00
2013-1-7,49.8,42.9,37.7,29.4,27.0,25.5,63,53,43,29.90,29.84,9,6,11,0.00
2013-1-8,59.4,42.5,29.0,29.6,22.1,13.6,79,49,17,30.11,29.88,15,4,17,0.00
2013-1-9,61.6,40.9,24.5,24.5,17.2,10.9,75,44,14,30.30,30.10,7,3,8,0.00
2013-1-10,61.9,44.1,22.1,27.4,18.9,13.9,75,42,19,30.12,29.82,18,7,28,0.00
2013-1-11,52.4,36.4,23.4,29.7,14.9,6.3,77,44,22,29.97,29.79,27,11,31,0.00
2013-1-12,38.4,25.0,12.6,11.6,6.0,-1.2,75,47,19,30.21,29.96,17,5,22,0.00
2013-1-13,40.2,23.0,7.5,8.7,3.9,-2.0,77,48,23,30.26,30.10,7,2,8,0.00
2013-1-14,37.4,24.1,13.7,7.6,3.4,-0.3,65,43,21,30.27,30.14,13,3,15,0.00
2013-1-15,36.7,20.8,7.7,8.4,1.2,-3.8,72,46,18,30.52,30.27,7,3,10,0.00
2013-1-16,51.5,30.9,15.5,17.3,2.8,-0.6,54,33,14,30.55,30.39,6,3,8,0.00
2013-1-17,59.0,38.4,25.1,16.3,9.8,4.8,52,32,16,30.43,30.28,7,3,8,0.00
2013-1-18,61.3,39.9,25.9,28.3,17.1,13.0,66,43,16,30.36,30.19,7,4,7,0.00
2013-1-19,65.7,43.5,26.9,35.2,18.1,12.4,63,39,14,30.33,30.19,7,4,8,0.00
2013-1-20,67.6,45.9,29.4,35.4,22.5,16.0,61,42,22,30.24,30.05,6,4,8,0.00
2013-1-21,68.1,48.5,34.1,28.8,25.2,22.1,69,44,20,30.15,30.02,8,4,10,0.00
2013-1-22,70.4,47.7,31.6,31.1,24.1,18.4,69,44,14,30.21,30.09,7,3,7,0.00
2013-1-23,71.3,48.5,30.6,28.8,24.2,20.0,68,42,17,30.28,30.15,7,3,9,0.00
2013-1-24,63.7,51.4,41.6,43.1,33.1,24.4,72,51,31,30.22,30.13,9,2,9,0.00
2013-1-25,66.3,54.2,40.7,48.8,40.4,36.0,85,61,39,30.19,29.97,13,3,16,0.00
2013-1-26,65.8,55.6,49.5,53.4,47.6,42.8,92,76,47,29.97,29.80,18,10,24,0.14
2013-1-27,59.9,52.7,47.5,45.9,43.3,40.8,88,71,55,29.94,29.86,9,3,11,0.00
2013-1-28,56.2,45.9,35.0,43.7,37.2,29.8,87,72,44,29.91,29.78,23,10,27,0.06
2013-1-29,43.6,35.1,29.9,30.5,23.7,16.5,92,66,35,30.21,29.90,24,12,28,0.05
2013-1-30,49.8,35.6,23.4,25.3,20.3,10.1,83,58,24,30.38,30.21,8,3,10,0.00
2013-1-31,55.5,38.1,24.4,29.2,23.6,19.1,81,59,30,30.32,30.20,7,4,8,0.00
2013-2-1,63.4,42.6,26.6,35.7,25.0,20.1,77,54,24,30.29,30.17,8,4,9,0.00
2013-2-2,68.0,45.2,26.9,31.8,23.3,13.2,78,48,12,30.31,30.17,7,3,9,0.00
2013-2-3,60.5,50.1,42.4,37.0,27.0,19.8,67,43,22,30.19,29.93,11,3,11,0.00
2013-2-4,64.4,49.9,36.4,37.8,34.5,30.5,80,58,33,30.02,29.89,8,2,9,0.00
2013-2-5,66.8,49.8,33.6,39.2,33.5,29.4,88,58,27,30.02,29.88,8,3,19,0.00
2013-2-6,64.7,48.5,33.7,38.4,32.4,27.5,89,58,25,30.01,29.87,14,4,16,0.00
2013-2-7,63.5,45.9,30.8,38.2,29.5,24.8,89,58,25,30.09,29.97,6,2,9,0.00
2013-2-8,65.6,50.8,32.8,27.5,17.0,-1.5,72,33,8,29.98,29.72,19,7,24,0.00
2013-2-9,49.9,40.0,32.3,30.5,23.3,17.2,86,52,32,30.02,29.66,25,12,28,0.01
2013-2-10,53.5,35.9,19.2,25.2,16.5,6.1,86,51,15,30.08,29.95,13,3,15,0.00
2013-2-11,48.1,33.3,20.2,31.0,20.3,11.4,90,62,29,30.16,29.97,17,6,24,0.01
2013-2-12,45.8,32.7,19.8,29.2,20.0,7.8,87,64,21,30.28,30.16,8,3,11,0.02
2013-2-13,55.3,34.7,17.5,23.5,15.8,10.0,84,53,17,30.29,30.14,6,2,9,0.00
2013-2-14,60.9,40.1,21.8,22.7,17.7,9.9,77,46,15,30.20,30.06,13,4,19,0.00
2013-2-15,62.7,43.9,29.3,22.3,16.3,3.5,64,37,10,30.22,30.15,13,5,18,0.00
2013-2-16,66.6,44.7,27.0,18.3,12.2,3.0,57,32,8,30.20,30.20,10,4,15,0.00
2013-2-17,69.4,46.6,23.8,18.0,9.5,0.5,57,28,8,30.20,30.20,21,6,31,0.00
2013-2-18,63.2,47.3,28.2,25.8,12.6,8.7,47,26,12,30.20,29.90,7,2,11,0.00
2013-2-19,61.2,47.8,30.0,37.8,23.9,10.0,69,41,20,29.90,29.90,24,9,30,0.00
2013-2-20,48.6,37.8,27.0,29.4,25.1,15.9,92,64,29,29.90,29.90,34,9,45,0.00
2013-2-21,44.4,34.6,22.1,32.7,27.4,19.1,90,76,51,29.90,29.90,12,3,15,0.05
2013-2-22,50.5,38.3,26.3,33.1,27.2,21.4,90,67,33,29.90,29.90,15,4,23,0.00
2013-2-23,62.3,41.5,22.5,28.9,23.0,14.8,87,54,18,29.90,29.90,14,3,14,0.00
2013-2-24,46.6,39.0,22.5,25.3,17.3,3.1,69,43,20,29.90,29.90,31,11,36,0.00
2013-2-25,54.7,37.0,19.9,17.7,12.7,6.1,71,40,14,29.90,29.90,12,3,14,0.00
2013-2-26,60.8,39.5,18.7,19.8,12.5,1.1,77,40,9,29.90,29.90,15,4,18,0.00
2013-2-27,56.2,38.9,21.2,14.8,7.9,1.6,63,32,12,29.90,29.90,8,3,8,0.00
2013-2-28,58.7,40.8,24.1,10.5,5.7,-1.0,49,26,9,29.90,29.90,8,3,11,0.00
2013-3-1,67.4,45.2,23.4,24.3,12.9,6.7,51,30,13,29.90,29.90,15,4,17,0.00
2013-3-2,74.8,51.4,31.5,30.4,18.4,13.9,60,32,10,30.31,29.90,7,3,12,0.00
2013-3-3,58.1,38.5,32.4,25.8,18.2,15.1,54,44,23,30.28,30.28,6,2,8,0.00
2013-3-4,68.5,58.4,38.6,27.9,22.3,11.3,51,27,13,30.28,30.28,28,14,32,0.00
2013-3-5,71.7,52.9,30.1,33.7,23.4,13.8,75,38,11,30.28,30.28,15,4,21,0.00
2013-3-6,78.2,60.4,44.9,30.5,25.1,16.6,46,28,12,30.28,30.28,18,5,22,0.00
2013-3-7,73.1,57.5,37.4,32.3,21.6,13.5,58,28,11,30.28,30.28,15,5,22,0.00
2013-3-8,58.8,50.8,38.8,44.8,34.0,19.9,85,55,29,30.28,29.70,26,11,38,0.18
2013-3-9,49.1,41.7,35.9,34.9,30.1,24.7,84,64,46,30.05,29.70,23,8,25,0.03
2013-3-10,56.7,44.5,34.2,36.0,30.8,24.5,85,62,31,30.05,30.05,12,4,17,0.00
2013-3-11,67.2,46.9,28.8,33.5,26.6,12.0,85,51,17,30.05,30.05,7,2,8,0.00
2013-3-12,75.0,51.6,31.0,33.7,24.3,13.8,78,42,10,30.11,30.01,7,2,8,0.00
2013-3-13,77.9,57.2,37.1,39.3,22.5,11.3,59,30,8,30.15,30.01,6,3,8,0.00
2013-3-14,81.1,57.7,39.7,33.1,19.0,3.2,47,26,5,30.13,30.07,7,4,7,0.00
2013-3-15,85.3,62.5,40.3,30.6,17.1,-4.9,46,23,3,30.13,30.13,16,4,21,0.00
2013-3-16,80.6,63.7,46.5,32.5,19.6,6.6,41,21,6,30.13,30.13,17,4,25,0.00
2013-3-18,74.9,67.7,53.5,31.5,18.0,8.8,30,16,8,30.13,30.13,16,6,25,0.00
2013-3-19,72.6,66.4,50.1,34.8,25.2,18.8,40,22,14,29.92,29.92,17,8,21,0.00
2013-3-20,77.2,66.8,46.0,33.0,25.6,15.6,57,24,10,30.02,30.00,14,5,15,0.00
2013-3-21,74.1,69.6,60.7,29.9,23.3,11.1,30,18,9,29.70,29.70,17,10,20,0.00
2013-3-22,73.9,66.8,53.7,30.0,22.9,13.0,36,20,11,29.63,29.63,23,12,32,0.00
2013-3-23,68.5,57.9,41.7,29.2,16.0,6.5,43,22,9,29.63,29.63,21,10,26,0.00
2013-3-24,45.8,40.2,33.5,12.3,9.1,7.9,35,28,22,29.63,29.63,5,1,5,0.00
2013-3-25,69.8,58.4,35.2,27.8,15.8,8.0,39,20,9,29.63,29.63,7,2,11,0.00
2013-3-26,44.1,41.5,37.4,19.4,13.0,8.8,40,31,25,29.63,29.63,6,3,7,0.00
2013-3-27,-200.0,0.0,200.0,-99.9,-99.9,-99.9,0,0,100,0.00,40.00,0,0,0,0.00
2013-3-28,-200.0,0.0,200.0,-99.9,-99.9,-99.9,0,0,100,0.00,40.00,0,0,0,0.00
2013-3-29,-200.0,0.0,200.0,-99.9,-99.9,-99.9,0,0,100,0.00,40.00,0,0,0,0.00
2013-3-30,75.7,16.7,48.1,32.2,-66.8,-99.9,42,7,13,29.89,-32.77,9,-3,13,0.02
2013-3-31,78.5,60.7,40.2,36.9,24.1,18.6,51,27,11,29.89,29.89,12,3,18,0.00
2013-4-1,79.3,64.0,43.2,33.4,25.1,16.4,47,25,10,29.89,29.89,16,5,21,0.00
2013-4-2,73.0,57.5,41.5,34.0,16.3,-7.5,51,24,4,29.89,29.85,17,6,26,0.00
2013-4-3,74.6,57.6,36.5,32.0,19.6,9.0,46,25,9,29.86,29.86,12,3,18,0.00
2013-4-4,81.8,62.2,40.4,37.5,17.4,1.0,49,23,5,29.86,29.86,8,3,14,0.00
2013-4-5,83.2,66.8,46.4,34.2,20.3,10.2,40,18,7,29.86,29.86,17,7,23,0.00
2013-4-6,79.9,67.3,52.5,34.6,27.2,20.9,40,23,12,29.86,29.86,15,6,25,0.00
2013-4-7,80.1,66.7,45.8,40.4,27.6,19.4,56,26,12,29.86,29.86,15,6,21,0.00
2013-4-8,78.3,64.9,53.1,35.3,30.0,24.1,45,28,15,29.86,29.86,33,12,51,0.00
2013-4-9,58.2,48.9,38.6,39.0,27.5,18.2,84,47,21,29.86,29.86,27,12,32,0.03
2013-4-10,62.3,50.9,36.2,30.5,22.4,18.1,62,34,20,29.86,29.86,17,6,22,0.00
2013-4-11,74.4,55.8,32.7,29.3,21.5,11.8,59,30,9,29.86,29.86,11,4,14,0.00
2013-4-12,75.2,58.1,41.4,33.3,22.3,17.2,43,27,12,29.86,29.86,11,2,11,0.00
2013-4-13,77.8,62.7,39.9,33.7,20.8,15.7,45,23,10,29.86,29.86,15,6,21,0.00
2013-4-14,78.0,66.1,52.7,32.9,27.4,18.7,38,25,11,29.86,29.86,18,9,24,0.00
2013-4-15,80.3,66.9,53.8,34.9,28.1,17.9,42,26,10,29.86,29.62,19,7,24,0.00
2013-4-16,79.8,67.7,58.1,39.0,24.7,5.7,43,23,6,29.62,29.62,24,11,30,0.00
2013-4-17,63.0,56.4,41.0,39.4,24.0,8.3,47,30,16,29.62,29.62,32,13,42,0.00
2013-4-18,63.5,48.7,29.5,15.0,6.3,-2.8,38,20,7,29.62,29.62,10,4,17,0.00
2013-4-19,71.1,52.1,32.8,17.7,1.3,-8.9,28,15,4,29.62,29.62,9,4,14,0.00
2013-4-20,78.0,59.1,34.1,14.7,4.4,-4.3,27,12,5,29.62,29.62,16,5,20,0.00
2013-4-21,83.3,63.8,41.1,17.8,11.3,-6.0,30,15,3,29.62,29.62,12,3,15,0.00
2013-4-30,86.8,76.1,70.5,24.0,13.3,-99.9,17,10,5,29.61,-32.77,19,-3,25,0.00
2013-5-1,83.9,69.6,47.1,30.0,15.4,3.6,33,15,5,29.61,29.61,15,5,22,0.00
2013-5-2,79.0,64.9,47.7,27.5,19.6,9.5,35,18,11,29.61,29.61,15,5,20,0.00
2013-5-3,77.8,59.3,41.6,27.4,16.9,7.2,50,22,7,29.61,29.61,10,3,14,0.00
2013-5-4,85.3,68.4,44.9,31.9,17.9,8.7,27,16,7,29.61,29.61,17,5,25,0.00
2013-5-5,82.9,72.1,60.9,32.9,25.8,14.8,28,19,8,29.61,29.61,16,7,30,0.00
2013-5-6,78.1,66.1,53.9,45.0,35.5,27.6,70,35,16,29.61,29.61,19,6,28,0.01
2013-5-7,79.1,65.4,46.7,38.4,30.4,22.6,53,29,14,29.61,29.61,18,5,26,0.00
2013-5-8,77.3,63.9,48.4,37.2,28.5,18.1,50,29,12,29.84,29.61,17,6,24,0.00
2013-5-9,77.8,65.8,51.7,40.7,30.9,19.0,55,30,11,29.84,29.84,13,4,20,0.00
2013-5-10,75.3,61.7,46.4,39.3,30.3,23.9,48,32,16,29.84,29.84,25,3,31,0.02
2013-5-11,76.3,61.7,46.2,40.0,34.1,29.2,59,38,21,29.84,29.84,16,6,22,0.00
2013-5-12,80.4,65.4,46.4,39.4,31.0,23.0,56,31,14,29.84,29.84,21,6,28,0.00
2013-5-13,83.5,68.3,46.9,34.0,23.7,11.0,41,21,7,29.84,29.84,20,5,26,0.00
2013-5-14,87.2,71.7,49.0,37.0,29.7,20.3,43,23,12,29.84,29.84,20,4,27,0.00
2013-5-15,88.4,77.2,60.0,36.8,30.2,24.7,35,19,10,29.84,29.84,18,9,29,0.00
2013-5-16,89.9,76.9,58.3,32.8,22.2,10.7,34,15,6,29.84,29.84,16,7,23,0.00
2013-5-17,88.0,73.9,52.8,36.7,21.8,3.7,35,17,5,29.84,29.84,15,6,24,0.00
2013-5-18,84.8,72.6,54.2,35.9,22.8,2.9,36,18,5,29.84,29.84,19,8,37,0.00
2013-5-19,85.4,70.2,51.6,40.0,28.3,13.6,51,25,7,29.84,29.84,18,6,25,0.00
2013-5-20,84.7,70.9,53.3,36.9,25.1,13.4,43,20,7,29.84,29.84,23,7,32,0.00
2013-5-21,87.8,70.8,46.5,26.8,14.4,-3.4,39,14,3,29.84,29.84,13,4,20,0.00
2013-5-22,91.9,75.7,52.0,27.9,14.9,9.4,26,11,5,29.84,29.84,12,4,22,0.00
2013-5-23,92.4,77.4,53.2,29.7,15.2,-0.4,25,12,3,29.84,29.84,16,5,22,0.00
2013-5-24,91.8,76.4,53.3,39.6,17.5,-8.9,41,15,2,29.84,29.84,14,5,21,0.00
2013-5-25,91.0,74.7,51.2,31.4,16.1,7.0,28,12,5,29.84,29.84,16,5,25,0.00
2013-5-26,90.4,74.6,52.2,31.6,11.6,-1.9,27,11,3,29.84,29.84,19,6,27,0.00
2013-5-27,91.7,73.3,49.8,21.9,8.3,-11.3,23,10,3,29.84,29.84,14,4,21,0.00
2013-5-28,88.7,73.5,50.8,29.4,15.2,-3.0,31,13,3,29.84,29.84,20,7,27,0.00
2013-5-29,85.9,73.8,57.7,37.9,27.4,17.6,33,19,8,29.84,29.84,16,7,25,0.00
2013-5-30,90.4,77.1,61.3,49.6,38.0,28.0,60,29,12,29.84,29.60,16,6,21,0.00
2013-5-31,92.6,78.1,60.6,51.7,40.6,29.0,61,30,11,29.60,29.60,14,5,20,0.00
2013-6-1,96.7,78.9,55.5,38.0,29.1,13.8,39,19,5,29.60,29.60,9,3,14,0.00
2013-6-2,98.9,83.5,62.5,38.4,30.7,22.8,32,17,7,29.60,29.60,16,6,25,0.00
2013-6-3,95.4,81.4,60.4,38.8,24.5,1.6,42,15,4,29.60,29.60,15,5,21,0.00
2013-6-4,95.8,81.2,61.1,38.4,31.1,24.2,34,17,9,29.69,29.60,17,6,24,0.00
2013-6-5,94.2,78.8,58.6,37.2,22.4,4.6,35,15,4,29.69,29.69,14,4,20,0.00
2013-6-6,95.1,79.0,55.9,35.0,16.5,0.2,31,12,3,29.69,29.69,7,2,9,0.00
2013-6-7,98.0,80.5,60.9,37.6,27.7,14.5,32,16,6,29.69,29.69,13,3,16,0.00
2013-6-8,99.0,84.7,65.4,35.3,23.2,14.7,23,12,5,29.69,29.69,20,7,28,0.00
2013-6-9,98.2,84.1,66.9,39.2,25.3,13.8,30,14,5,29.69,29.69,16,6,22,0.00
2013-6-10,99.6,82.8,60.0,33.1,22.9,16.6,22,12,6,29.69,29.69,11,4,20,0.00
2013-6-11,101.0,85.4,61.1,31.1,22.8,14.4,24,11,5,29.69,29.69,14,6,21,0.00
2013-6-12,101.4,86.4,64.3,43.7,26.5,21.5,25,12,6,29.69,29.69,14,5,18,0.00
2013-6-13,97.9,85.8,72.5,42.3,35.9,28.3,27,18,11,29.69,29.69,18,7,23,0.00
2013-6-14,95.5,81.3,64.9,51.6,43.6,34.5,44,28,15,29.69,29.69,16,4,18,0.00
2013-6-15,92.3,75.6,64.9,63.5,51.2,42.2,81,46,22,29.69,29.69,14,2,17,0.11
2013-6-16,94.5,78.5,59.7,59.8,49.1,31.1,84,43,17,29.69,29.69,13,4,21,0.00
2013-6-17,96.9,82.1,60.7,38.2,27.9,18.0,35,16,6,29.69,29.69,15,5,26,0.00
2013-6-18,98.3,81.4,57.6,44.3,4.1,-99.9,29,11,1,29.69,29.69,16,5,23,0.00
2013-6-19,83.9,78.7,69.9,16.8,11.9,9.4,13,8,6,29.69,29.69,7,2,11,0.00
2013-6-20,98.5,88.5,73.1,33.6,12.0,-19.2,20,7,1,29.69,29.69,21,8,36,0.00
2013-6-21,98.4,80.9,60.5,42.2,24.2,2.8,36,15,3,29.69,29.69,22,6,30,0.00
2013-6-22,96.3,82.9,65.0,34.3,20.8,11.4,31,12,5,29.69,29.69,21,9,28,0.00
2013-6-23,77.0,71.0,64.1,28.9,26.7,24.1,26,19,14,29.69,29.69,8,5,9,0.00
2013-6-24,84.0,78.7,73.8,34.6,27.0,23.3,21,15,12,29.69,29.69,12,8,12,0.00
2013-6-25,95.5,80.7,60.1,41.5,25.1,13.3,42,16,6,29.69,29.69,15,5,21,0.00
2013-6-26,96.6,81.7,63.1,34.0,20.6,11.2,27,12,5,29.69,29.69,12,5,18,0.00
2013-6-27,100.5,84.3,65.6,38.1,26.1,15.6,23,13,7,29.69,29.69,15,7,25,0.00
2013-6-28,100.6,84.6,65.7,43.4,30.8,25.7,23,15,8,29.69,29.69,15,2,23,0.00
2013-6-29,101.5,85.4,68.3,51.5,39.0,31.4,31,20,10,29.69,29.69,7,2,12,0.00
2013-6-30,102.0,87.1,76.4,57.5,44.1,37.8,49,25,12,29.69,29.46,21,5,31,0.02
2013-7-1,95.3,83.1,67.9,58.5,53.0,44.6,68,38,18,29.64,29.64,12,3,19,0.01
2013-7-2,91.2,77.8,63.7,61.1,56.0,49.0,86,53,25,29.64,29.64,23,6,35,0.38
2013-7-3,93.1,79.2,64.1,63.3,58.1,49.5,87,52,24,29.85,29.64,26,2,30,0.01
2013-7-4,96.2,81.3,68.1,63.2,55.9,49.1,81,45,22,29.81,29.81,23,5,30,0.00
2013-7-5,91.5,75.6,67.9,64.6,60.0,52.7,81,60,33,29.81,29.81,20,5,23,0.19
2013-7-6,94.1,77.4,63.6,64.4,59.3,54.0,89,58,26,29.81,29.81,16,2,16,0.00
2013-7-7,98.2,81.7,67.5,63.3,56.9,49.9,75,47,20,29.81,29.81,16,4,18,0.00
2013-7-8,94.1,81.1,71.4,62.2,58.5,51.8,71,49,24,29.81,29.81,14,2,18,0.00
2013-7-9,92.9,80.4,67.4,66.5,62.2,57.8,90,58,32,29.81,29.81,17,5,26,0.04
2013-7-10,89.9,81.1,72.1,66.9,64.3,59.3,83,58,37,29.82,29.82,15,3,15,0.04
2013-7-11,86.1,74.3,66.5,67.6,65.1,60.2,93,75,46,29.82,29.82,15,3,16,0.08
2013-7-12,88.8,76.3,63.0,66.0,61.7,56.2,91,64,34,29.82,29.69,22,3,24,0.15
2013-7-13,92.2,79.4,69.4,66.0,61.3,53.5,87,57,28,29.80,29.65,21,3,25,0.15
2013-7-14,94.5,80.3,68.6,67.0,61.2,54.7,88,57,27,29.78,29.64,19,4,25,0.00
2013-7-15,90.6,75.6,66.9,68.3,62.1,57.6,90,65,34,29.80,29.59,20,2,22,0.63
2013-7-16,75.7,68.0,64.8,65.6,63.8,61.8,94,87,63,29.95,29.79,13,2,14,0.61
2013-7-17,85.6,73.2,64.1,65.0,60.1,52.3,95,67,32,29.99,29.84,0,0,0,0.00
2013-7-18,79.1,71.7,63.2,61.7,59.2,57.6,85,66,49,29.93,29.80,0,0,0,0.00
2013-7-19,80.2,73.0,66.9,63.2,61.7,59.3,84,69,51,29.88,29.73,13,1,15,0.00
2013-7-20,83.0,72.4,64.2,66.6,62.7,59.8,89,73,47,29.80,29.68,17,2,22,0.03
2013-7-21,86.1,74.5,64.5,66.1,63.4,59.3,93,71,43,29.83,29.71,18,3,21,0.00
2013-7-22,86.8,76.4,66.7,66.0,62.3,57.8,88,64,39,29.84,29.74,17,4,20,0.00
2013-7-23,89.2,76.3,65.9,65.3,61.6,57.6,90,64,37,29.82,29.65,17,5,22,0.06
2013-7-24,85.7,74.1,66.3,67.2,64.2,60.1,93,73,43,29.79,29.69,11,1,13,0.01
2013-7-25,85.9,74.3,68.9,68.3,65.7,62.5,92,76,47,29.91,29.69,13,2,17,0.09
2013-7-26,88.6,75.6,67.6,69.2,64.5,59.7,90,71,38,29.99,29.87,22,3,25,0.00
2013-7-27,83.3,73.3,65.2,66.9,63.4,58.8,93,73,45,29.92,29.72,14,2,18,0.00
2013-7-28,90.8,77.6,63.4,66.3,58.6,49.9,90,57,27,29.80,29.68,16,3,20,0.00
2013-7-29,91.9,78.8,66.2,62.1,54.7,47.9,76,47,23,29.88,29.69,11,3,15,0.00
2013-7-30,94.6,80.5,63.6,60.5,51.6,47.1,73,40,20,29.97,29.83,8,2,11,0.00
2013-7-31,91.3,79.7,69.1,63.3,57.1,50.6,64,47,28,29.91,29.77,13,2,14,0.00
2013-8-1,76.3,70.4,65.2,65.7,62.3,58.0,90,76,59,29.89,29.78,11,2,10,0.64
2013-8-2,85.2,72.2,62.5,66.7,63.1,56.4,93,75,44,29.87,29.77,22,2,25,0.00
2013-8-3,90.8,77.3,61.1,67.2,60.2,56.0,93,60,31,29.86,29.73,10,2,12,0.00
2013-8-4,89.3,78.1,69.9,65.0,59.7,54.1,81,55,33,29.82,29.70,9,3,17,0.00
2013-8-5,82.8,71.2,63.1,65.4,60.5,55.4,90,71,40,29.89,29.72,17,4,26,0.11
2013-8-6,77.3,67.5,59.9,66.0,61.7,58.0,94,82,59,29.88,29.80,20,2,26,0.62
2013-8-7,84.7,71.8,58.4,63.5,57.3,51.6,95,64,37,29.91,29.78,10,3,16,0.00
2013-8-8,90.3,73.1,57.7,60.4,53.6,45.7,88,55,22,29.86,29.81,7,2,10,0.00
2013-8-9,90.6,75.0,57.0,58.3,51.9,46.7,79,48,24,29.83,29.75,9,2,16,0.00
2013-8-10,89.8,74.7,62.1,61.5,55.2,45.9,81,54,25,29.75,29.75,20,2,26,0.00
2013-8-11,87.8,74.3,65.2,63.7,60.3,57.8,82,64,39,29.84,29.75,17,2,20,0.00
2013-8-12,91.6,75.2,63.5,66.0,61.3,56.3,84,64,36,29.84,29.84,28,3,28,0.00
2013-8-13,90.8,75.7,63.0,71.7,61.4,55.6,84,64,36,29.84,29.84,14,2,23,0.21
2013-8-14,92.0,80.7,69.7,65.1,61.2,54.8,79,54,33,29.84,29.84,16,2,17,0.01
2013-8-15,91.8,79.6,66.4,65.0,60.3,54.0,86,55,31,29.84,29.84,5,1,6,0.00
2013-8-16,94.9,79.2,61.6,65.4,57.7,51.4,83,52,27,29.84,29.84,9,2,11,0.00
2013-8-17,97.0,81.1,63.4,66.3,53.0,42.2,77,43,16,29.84,29.84,10,2,16,0.00
2013-8-18,95.3,80.5,64.9,59.4,53.1,47.6,65,41,20,29.84,29.84,22,3,25,0.00
2013-8-19,94.9,80.1,64.9,57.0,52.2,47.5,65,41,21,29.84,29.84,11,2,18,0.00
2013-8-20,94.6,78.7,67.6,60.8,55.5,50.4,77,47,24,29.84,29.84,21,3,23,0.00
2013-8-21,88.6,77.4,65.3,61.2,57.2,52.8,77,52,31,29.84,29.84,13,3,14,0.00
2013-8-22,93.3,78.3,61.8,61.3,54.5,44.9,78,48,20,29.84,29.84,13,3,16,0.00
2013-8-23,92.1,76.4,61.0,63.1,53.8,48.1,90,51,23,29.84,29.84,12,3,17,0.18
2013-8-24,79.4,70.3,63.1,64.1,61.1,58.3,93,74,52,29.84,29.76,10,2,13,0.08
2013-8-25,87.3,72.0,63.4,68.5,63.5,59.5,92,77,42,29.76,29.76,21,2,21,0.04
2013-8-26,92.0,78.0,65.9,67.4,59.7,52.2,92,58,29,29.76,29.76,13,4,18,0.00
2013-8-27,90.1,76.2,61.4,61.8,56.0,49.9,75,52,26,29.76,29.76,12,2,14,0.02
2013-8-28,83.9,72.7,62.6,67.1,60.5,55.9,90,67,43,29.76,29.76,15,2,17,0.11
2013-8-29,78.6,68.8,65.5,67.1,64.5,62.7,95,87,59,29.84,29.76,14,1,16,0.18
2013-8-30,77.5,69.8,63.8,67.0,63.9,60.5,96,83,57,29.94,29.83,8,1,8,0.01
2013-8-31,89.7,75.1,60.3,65.8,60.3,56.5,93,64,34,29.94,29.76,10,3,16,0.01
2013-9-1,91.9,78.7,62.2,63.4,57.7,48.4,86,52,27,29.76,29.67,7,2,10,0.00
2013-9-2,94.3,79.0,65.6,63.2,57.3,49.6,79,51,23,29.71,29.60,8,2,13,0.00
2013-9-3,93.1,77.5,65.7,60.2,56.6,54.6,70,51,28,29.61,29.61,8,2,11,0.00
2013-9-5,93.1,78.2,67.4,65.1,57.1,48.5,71,52,23,29.79,29.61,10,4,27,0.14
2013-9-6,88.4,74.9,62.6,58.0,55.3,51.2,76,53,29,29.91,29.76,15,3,22,0.00
2013-9-7,83.7,70.8,63.7,62.5,60.1,55.9,92,71,44,29.86,29.68,21,2,23,0.40
2013-9-8,80.3,67.2,63.2,65.4,62.5,58.6,94,86,57,29.78,29.64,25,2,27,0.27
2013-9-9,74.2,66.7,63.6,65.3,63.1,61.9,95,89,68,29.71,29.67,13,2,15,0.12
2013-9-10,82.2,70.3,62.2,64.8,59.6,54.7,95,72,40,29.78,29.67,11,2,15,0.01
2013-9-11,82.5,69.4,56.6,61.9,55.9,48.7,93,66,32,29.84,29.75,7,2,11,0.00
2013-9-12,66.3,63.5,60.3,63.1,58.9,55.2,90,85,74,29.78,29.76,5,1,5,0.05
2013-9-13,85.1,71.9,61.6,66.0,62.0,56.8,96,74,39,29.76,29.76,9,2,13,0.01
2013-9-14,87.0,72.4,60.1,64.5,60.0,51.8,95,68,31,29.76,29.61,7,1,8,0.01
2013-9-15,88.7,74.8,63.4,60.4,57.7,53.7,87,58,32,29.61,29.61,9,2,12,0.00
2013-9-16,88.5,74.0,61.4,61.1,58.0,55.9,84,60,34,29.74,29.61,13,3,15,0.00
2013-9-17,90.0,74.3,59.6,61.5,56.9,50.7,89,59,27,29.74,29.65,8,2,10,0.00
2013-9-18,91.5,75.9,61.0,62.5,53.5,40.4,85,50,24,29.74,29.61,7,2,11,0.00
2013-9-19,89.5,75.1,58.9,58.4,50.5,38.0,63,44,28,29.63,29.63,8,2,13,0.00
2013-9-20,88.1,70.9,59.6,63.1,56.2,49.6,81,62,32,29.63,29.63,24,3,37,0.21
2013-9-21,86.9,71.2,55.0,58.3,53.5,46.7,91,58,26,29.63,29.63,7,1,13,0.00
2013-9-22,87.1,74.3,60.5,61.3,52.5,43.1,76,48,30,29.63,29.63,18,7,30,0.00
2013-9-23,83.6,65.8,48.8,49.1,40.4,27.9,71,43,14,29.63,29.63,5,2,6,0.00
2013-9-24,89.2,69.7,47.0,41.6,35.7,26.3,60,33,13,29.63,29.63,13,3,15,0.00
2013-9-25,88.7,72.9,50.4,42.9,34.0,27.2,54,26,15,29.63,29.63,14,4,20,0.00
2013-9-26,86.1,73.5,57.2,53.4,36.5,-99.9,52,28,17,29.63,-32.77,14,0,21,0.00
2013-9-27,75.1,67.6,55.3,54.1,44.6,32.2,60,44,32,0.00,-32.77,12,5,19,0.00
2013-9-28,80.1,62.6,47.0,42.4,35.9,29.2,61,39,23,0.00,-32.77,9,2,15,0.00
2013-9-29,83.5,66.4,48.0,40.9,36.9,33.6,63,36,18,0.00,-32.77,7,2,11,0.00
2013-9-30,85.2,66.0,46.3,41.2,33.1,26.7,64,34,12,0.00,-32.77,11,3,16,0.00
2013-10-1,85.4,66.7,44.8,37.4,31.5,27.1,51,30,13,0.00,-32.77,7,2,12,0.00
2013-10-2,85.1,68.0,48.0,40.7,36.4,31.8,60,33,15,29.82,-32.77,12,3,14,0.00
2013-10-3,86.1,69.4,48.1,45.3,37.0,28.3,65,34,13,29.81,29.81,15,5,28,0.00
2013-10-4,80.9,68.1,54.1,48.3,39.8,32.7,71,39,19,29.81,29.81,13,5,21,0.00
2013-10-5,74.7,59.2,41.7,32.7,25.4,18.8,51,29,16,29.81,29.81,8,2,13,0.00
2013-10-6,78.9,59.3,40.3,28.9,21.0,17.6,43,25,11,29.81,29.81,5,2,10,0.00
2013-10-7,84.1,62.3,39.4,30.3,25.3,18.8,45,27,13,29.81,29.81,10,2,15,0.00
2013-10-8,83.1,67.1,47.6,37.0,30.7,25.9,47,27,16,29.81,29.81,12,3,20,0.00
2013-10-9,80.3,69.3,55.1,46.2,35.8,26.6,45,31,17,29.81,29.81,13,5,24,0.00
2013-10-10,69.4,60.6,41.6,42.3,37.9,32.5,76,45,28,29.81,29.81,23,8,31,0.00
2013-10-11,72.7,53.7,36.5,41.0,35.3,30.0,89,55,22,29.81,29.81,5,2,8,0.00
2013-10-12,81.8,61.5,39.7,38.5,32.5,25.3,70,39,13,29.81,29.81,14,3,21,0.00
2013-10-13,84.6,67.6,46.6,47.3,39.4,32.7,67,39,18,29.81,29.81,16,4,23,0.00
2013-10-14,76.6,64.7,52.7,50.9,43.4,33.1,73,48,27,29.81,29.81,13,4,21,0.00
2013-10-15,77.9,61.5,41.9,42.0,33.9,25.4,66,38,24,29.81,29.81,14,5,19,0.00
2013-10-16,74.7,57.1,38.8,27.6,20.3,11.1,51,26,10,29.81,29.81,11,2,14,0.00
2013-10-17,75.8,55.0,33.8,25.0,15.0,5.3,47,24,9,29.81,29.81,8,2,15,0.00
2013-10-18,74.7,54.3,34.5,23.6,17.1,10.6,45,25,11,29.81,29.81,6,2,9,0.00
2013-10-19,76.3,55.3,35.4,20.2,15.8,13.1,41,23,10,29.81,29.81,6,2,10,0.00
2013-10-20,76.8,57.1,36.0,24.4,14.0,3.5,42,22,6,29.81,29.81,9,3,14,0.00
2013-10-21,77.9,56.1,35.9,19.8,13.7,10.4,36,21,8,29.81,29.81,6,2,13,0.00
2013-10-22,77.6,57.5,41.5,30.2,21.1,12.2,50,26,11,29.81,29.81,7,2,11,0.00
2013-10-23,81.1,61.1,41.8,36.6,28.5,21.2,47,31,17,29.81,29.81,6,2,11,0.00
2013-10-24,83.0,65.4,44.1,42.4,31.7,25.3,52,31,16,29.81,29.81,14,3,23,0.00
2013-10-25,79.8,60.9,43.1,30.7,24.5,18.5,44,27,11,29.81,29.81,9,3,11,0.00
2013-10-26,77.2,57.9,38.9,30.8,23.7,19.0,51,30,12,29.81,29.81,5,2,12,0.00
2013-10-27,81.0,61.7,43.3,36.1,28.3,21.4,56,31,14,29.81,29.81,10,3,18,0.00
2013-10-28,74.4,64.0,49.4,30.5,26.5,18.7,41,25,13,29.81,29.81,15,6,22,0.00
2013-10-29,74.7,64.2,54.8,38.9,29.8,22.2,54,29,16,29.81,29.81,16,5,22,0.00
2013-10-30,67.1,54.8,40.3,41.3,35.5,27.0,73,49,32,29.81,29.81,18,5,25,0.00
2013-10-31,68.6,48.7,30.1,30.1,19.9,1.4,78,39,7,29.81,29.81,11,2,14,0.00
2013-11-1,70.4,49.1,30.2,24.0,16.9,10.8,47,30,14,29.81,29.81,6,2,8,0.00
2013-11-2,75.9,54.5,35.0,26.8,17.2,12.8,44,26,9,29.81,29.81,11,2,13,0.00
2013-11-3,73.4,61.4,45.9,52.6,41.8,26.8,85,51,25,29.81,29.81,15,5,27,0.02
2013-11-4,72.9,58.6,40.0,44.6,38.9,34.1,83,51,30,29.81,29.81,10,2,22,0.00
2013-11-5,66.2,54.7,38.9,42.7,36.0,30.6,72,51,30,29.81,29.81,10,3,19,0.00
2013-11-6,66.0,48.1,33.6,31.2,22.2,14.8,78,40,15,29.81,29.81,7,3,13,0.00
2013-11-7,71.8,49.8,32.2,28.5,18.4,8.8,47,30,16,29.81,29.81,8,2,14,0.00
2013-11-8,72.9,53.4,36.9,34.7,28.5,22.8,60,40,24,29.81,29.81,5,2,8,0.00
2013-11-9,74.3,54.1,37.0,35.5,30.6,25.0,65,43,23,29.81,29.81,6,2,8,0.00
2013-11-10,78.1,57.5,39.7,37.1,31.3,27.3,63,40,21,29.81,29.81,6,2,9,0.00
2013-11-11,77.8,59.2,45.3,39.6,34.7,30.9,63,42,23,29.81,29.81,9,3,14,0.00
2013-11-12,74.9,58.6,45.8,43.4,37.3,29.5,67,47,29,29.81,29.81,19,5,22,0.00
2013-11-13,65.6,52.4,41.1,41.9,38.8,35.2,82,61,42,29.81,29.81,7,3,10,0.00
2013-11-14,46.1,42.4,40.2,37.9,36.4,34.6,84,79,73,29.81,29.81,4,3,5,0.00
2013-11-15,71.7,65.1,59.9,46.6,42.6,38.7,60,44,37,29.81,29.81,21,11,34,0.00
2013-11-16,71.0,60.2,48.2,46.3,38.7,28.6,73,47,21,29.81,29.81,17,5,24,0.00
2013-11-17,69.9,53.9,39.9,44.6,38.5,35.0,89,60,30,29.81,29.81,8,2,16,0.00
2013-11-18,72.4,56.4,43.2,47.3,37.4,31.3,76,51,27,29.81,29.81,8,3,14,0.00
2013-11-19,74.9,55.7,36.6,40.1,32.3,23.5,80,46,15,29.81,29.81,11,3,20,0.00
2013-11-20,73.2,56.8,40.5,37.2,32.1,22.7,65,42,15,29.81,29.81,12,3,21,0.00
2013-11-21,68.1,59.4,47.9,45.7,40.7,32.0,63,50,40,29.81,29.81,9,3,15,0.00
2013-11-22,65.6,55.4,45.5,54.0,46.6,40.4,92,73,47,29.81,29.81,15,5,27,0.26
2013-11-23,46.7,42.4,38.0,41.5,38.8,35.9,93,87,76,29.81,29.81,6,2,10,0.43
2013-11-24,43.5,37.0,32.6,36.8,33.3,29.0,93,87,76,29.81,29.81,8,5,11,0.00
2013-11-25,47.8,35.0,28.1,38.8,31.5,26.1,95,87,69,29.81,29.81,7,2,11,0.01
2013-11-26,56.6,41.6,29.5,37.0,29.2,24.3,90,65,34,29.81,29.81,9,2,14,0.00
2013-11-27,51.2,39.3,29.3,29.1,26.6,23.7,84,62,35,29.81,29.81,5,1,8,0.00
2013-11-28,60.1,41.5,27.0,36.0,29.3,22.1,84,64,37,29.81,29.81,5,3,7,0.00
2013-11-29,66.6,47.9,34.8,40.5,35.0,29.0,81,63,36,29.81,29.81,7,4,11,0.00
2013-11-30,66.4,51.0,39.2,41.2,38.2,34.8,87,65,34,29.81,29.81,5,2,8,0.00
2013-12-1,68.0,54.4,42.5,41.1,37.9,32.1,77,56,27,29.81,29.81,7,2,8,0.00
2013-12-2,70.2,49.5,30.2,38.0,24.9,7.8,83,47,9,29.81,29.81,8,2,12,0.00
2013-12-3,70.4,52.0,35.9,42.3,27.6,5.5,69,46,9,29.81,29.81,14,4,20,0.00
2013-12-4,65.1,55.5,45.9,43.2,34.9,20.6,70,49,20,29.81,29.81,24,10,42,0.00
2013-12-5,47.9,41.8,32.7,39.9,35.3,27.2,89,78,63,29.81,29.81,12,5,20,0.04
2013-12-6,46.4,34.1,24.0,29.9,25.5,19.9,88,72,46,29.81,29.81,4,1,9,0.00
2013-12-7,56.9,39.5,23.5,33.6,19.1,5.6,87,52,13,29.81,29.81,16,3,20,0.01
2013-12-8,51.6,43.5,37.0,33.9,28.4,17.0,70,56,41,29.81,29.81,11,4,16,0.00
2013-12-9,50.2,39.7,26.1,34.5,23.9,11.8,80,56,22,29.81,29.81,12,4,18,0.00
2013-12-10,49.3,34.5,23.7,16.7,13.0,9.5,66,43,24,29.81,29.81,10,3,13,0.00
2013-12-11,61.2,42.8,29.7,36.3,23.4,13.9,63,47,33,29.81,29.81,8,2,9,0.00
2013-12-12,60.2,48.0,38.5,44.4,34.2,18.8,86,61,36,29.81,29.81,8,3,12,0.00
2013-12-13,56.1,42.9,29.1,37.8,31.0,26.8,94,67,35,29.81,29.81,12,3,18,0.01
2013-12-14,56.5,39.0,25.4,32.8,24.7,19.8,86,60,24,29.81,29.81,12,3,16,0.00
2013-12-15,58.8,41.7,28.3,26.1,22.2,19.8,72,49,24,29.81,29.81,6,2,7,0.00
2013-12-16,65.9,45.0,29.2,27.0,22.1,18.7,68,44,17,29.81,29.81,6,4,7,0.00
2013-12-17,68.5,46.8,32.9,27.8,23.7,21.3,62,43,18,29.81,29.81,7,4,9,0.00
2013-12-18,64.8,49.5,36.1,26.4,23.5,18.3,58,38,17,29.81,29.81,6,2,9,0.00
2013-12-19,64.1,54.8,44.1,27.2,20.9,14.3,45,28,15,29.81,29.81,17,7,28,0.00
2013-12-20,50.5,42.5,36.6,40.0,32.9,21.3,88,71,32,29.81,29.81,14,2,33,0.16
2013-12-21,46.2,41.2,36.9,35.9,33.2,29.2,87,73,52,29.81,29.81,15,6,28,0.01
2013-12-22,50.3,38.5,29.1,35.5,29.5,24.6,91,72,41,29.81,29.81,10,2,15,0.00
2013-12-23,55.6,38.0,25.8,32.2,25.7,21.4,89,65,31,30.33,29.81,6,2,7,0.00
2013-12-24,57.0,38.7,22.2,29.5,23.5,17.3,83,57,30,30.33,30.31,6,3,10,0.00
2013-12-25,57.7,41.6,30.3,28.4,24.8,22.5,74,54,29,30.31,30.31,11,4,17,0.00
2013-12-26,54.3,38.3,27.9,28.5,23.1,19.9,80,57,28,30.31,30.31,8,3,13,0.00
2013-12-27,57.6,39.1,26.1,25.4,19.9,15.8,75,51,22,30.31,30.31,14,3,17,0.00
2013-12-28,57.1,40.0,21.9,28.3,21.9,15.2,79,51,30,30.31,30.31,4,1,8,0.00
2013-12-29,57.2,42.9,28.8,27.5,23.3,19.6,74,49,25,30.31,30.31,5,2,7,0.00
2013-12-30,59.1,40.0,28.2,26.8,21.7,17.6,74,51,20,30.31,30.31,6,3,7,0.00
2013-12-31,59.8,39.3,26.5,25.5,20.6,16.7,73,51,22,30.31,30.31,7,3,10,0.00
2014-1-1,65.4,41.4,24.6,25.9,21.1,17.9,77,49,19,30.31,30.31,7,2,8,0.00
2014-1-2,62.6,44.6,32.1,24.9,22.1,19.6,63,44,21,30.31,30.31,7,3,8,0.00